createdAt,value
2023-09-02T00:00:01.184Z,15.14
2023-09-02T00:01:02.805Z,15.14
2023-09-02T00:02:04.673Z,15.11
2023-09-02T00:04:08.994Z,15.05
2023-09-02T00:05:10.708Z,14.84
2023-09-02T00:06:12.322Z,14.98
2023-09-02T00:07:13.912Z,14.95
2023-09-02T00:08:15.494Z,14.95
2023-09-02T00:09:17.116Z,15.05
2023-09-02T00:10:18.840Z,15.01
2023-09-02T00:11:20.427Z,15.11
2023-09-02T00:12:22.007Z,15.06
2023-09-02T00:13:24.045Z,14.72
2023-09-02T00:14:25.629Z,14.92
2023-09-02T00:15:27.217Z,14.90
2023-09-02T00:16:28.895Z,14.89
2023-09-02T00:17:32.852Z,14.89
2023-09-02T00:18:34.515Z,14.85
2023-09-02T00:19:36.120Z,14.90
2023-09-02T00:20:37.712Z,14.99
2023-09-02T00:21:39.346Z,14.98
2023-09-02T00:22:41.693Z,14.64
2023-09-02T00:23:46.288Z,14.47
2023-09-02T00:24:48.037Z,14.53
2023-09-02T00:25:49.598Z,14.76
2023-09-02T00:26:51.178Z,14.72
2023-09-02T00:27:53.321Z,14.77
2023-09-02T00:28:54.894Z,14.82
2023-09-02T00:29:56.699Z,14.77
2023-09-02T00:30:58.285Z,14.96
2023-09-02T00:31:59.896Z,14.96
2023-09-02T00:33:02.014Z,14.93
2023-09-02T00:34:03.712Z,14.71
2023-09-02T00:35:05.766Z,14.81
2023-09-02T00:36:07.618Z,14.65
2023-09-02T00:37:09.375Z,14.55
2023-09-02T00:38:10.959Z,14.66
2023-09-02T00:39:12.548Z,14.69
2023-09-02T00:40:17.373Z,14.81
2023-09-02T00:41:40.365Z,14.69
2023-09-02T00:42:42.489Z,14.76
2023-09-02T00:43:44.090Z,14.74
2023-09-02T00:44:45.660Z,14.77
2023-09-02T00:45:47.384Z,14.71
2023-09-02T00:46:49.004Z,14.80
2023-09-02T00:47:51.283Z,14.71
2023-09-02T00:48:52.894Z,14.83
2023-09-02T00:49:54.497Z,14.79
2023-09-02T00:50:56.161Z,14.80
2023-09-02T00:51:57.701Z,14.49
2023-09-02T00:52:59.342Z,14.70
2023-09-02T00:54:00.971Z,14.75
2023-09-02T00:55:03.290Z,14.80
2023-09-02T00:56:05.342Z,14.73
2023-09-02T00:57:07.402Z,14.56
2023-09-02T00:58:09.006Z,14.38
2023-09-02T00:59:10.676Z,14.50
2023-09-02T01:00:14.497Z,14.63
2023-09-02T01:01:16.438Z,14.53
2023-09-02T01:02:18.390Z,14.58
2023-09-02T01:03:20.423Z,14.50
2023-09-02T01:04:22.741Z,14.62
2023-09-02T01:05:24.441Z,14.61
2023-09-02T01:06:26.147Z,14.63
2023-09-02T01:07:27.757Z,14.59
2023-09-02T01:08:34.511Z,14.37
2023-09-02T01:09:36.125Z,14.50
2023-09-02T01:10:38.487Z,14.47
2023-09-02T01:11:40.098Z,14.55
2023-09-02T01:12:41.823Z,14.54
2023-09-02T01:13:43.404Z,14.22
2023-09-02T01:14:45.363Z,14.44
2023-09-02T01:15:47.005Z,14.55
2023-09-02T01:16:48.768Z,14.48
2023-09-02T01:17:50.486Z,14.47
2023-09-02T01:18:52.089Z,14.42
2023-09-02T01:19:58.032Z,14.38
2023-09-02T01:21:20.795Z,14.39
2023-09-02T01:22:45.275Z,14.46
2023-09-02T01:24:08.659Z,14.44
2023-09-02T01:25:18.694Z,14.43
2023-09-02T01:26:31.130Z,14.42
2023-09-02T01:27:36.850Z,14.52
2023-09-02T01:28:41.581Z,14.23
2023-09-02T01:30:08.017Z,14.44
2023-09-02T01:31:11.536Z,14.18
2023-09-02T01:32:14.323Z,14.32
2023-09-02T01:33:17.094Z,14.35
2023-09-02T01:34:20.114Z,14.43
2023-09-02T01:35:26.091Z,14.37
2023-09-02T01:36:29.222Z,14.33
2023-09-02T01:37:36.216Z,14.43
2023-09-02T01:38:37.826Z,14.29
2023-09-02T01:39:40.423Z,14.33
2023-09-02T01:40:43.777Z,14.38
2023-09-02T01:41:45.864Z,14.21
2023-09-02T01:42:48.041Z,14.30
2023-09-02T01:43:49.869Z,13.82
2023-09-02T01:44:51.774Z,14.04
2023-09-02T01:45:54.012Z,14.16
2023-09-02T01:46:56.894Z,14.08
2023-09-02T01:47:59.188Z,14.10
2023-09-02T01:49:00.817Z,14.31
2023-09-02T01:50:06.044Z,14.41
2023-09-02T01:51:08.235Z,14.37
2023-09-02T01:52:09.906Z,14.36
2023-09-02T01:53:11.817Z,14.47
2023-09-02T01:54:13.607Z,14.48
2023-09-02T01:55:19.336Z,14.49
2023-09-02T01:56:21.017Z,14.45
2023-09-02T01:57:22.814Z,14.16
2023-09-02T01:58:24.709Z,14.06
2023-09-02T01:59:27.038Z,14.24
2023-09-02T02:00:29.380Z,14.21
2023-09-02T02:01:31.546Z,14.30
2023-09-02T02:02:33.283Z,14.14
2023-09-02T02:03:38.035Z,14.19
2023-09-02T02:04:40.606Z,14.36
2023-09-02T02:05:44.169Z,14.28
2023-09-02T02:06:47.152Z,13.97
2023-09-02T02:07:53.490Z,14.04
2023-09-02T02:09:04.499Z,14.14
2023-09-02T02:10:08.884Z,14.31
2023-09-02T02:11:10.488Z,14.32
2023-09-02T02:12:12.119Z,14.12
2023-09-02T02:13:14.090Z,14.12
2023-09-02T02:14:15.645Z,14.10
2023-09-02T02:15:17.918Z,14.21
2023-09-02T02:16:23.344Z,14.16
2023-09-02T02:17:25.733Z,14.25
2023-09-02T02:18:27.293Z,14.28
2023-09-02T02:19:28.913Z,14.15
2023-09-02T02:20:40.366Z,14.24
2023-09-02T02:21:42.156Z,14.20
2023-09-02T02:22:43.815Z,13.85
2023-09-02T02:23:45.423Z,14.04
2023-09-02T02:24:47.024Z,13.91
2023-09-02T02:25:48.604Z,13.91
2023-09-02T02:26:50.197Z,13.92
2023-09-02T02:27:51.735Z,13.95
2023-09-02T02:28:55.019Z,13.96
2023-09-02T02:29:57.178Z,13.85
2023-09-02T02:30:59.869Z,13.75
2023-09-02T02:32:02.520Z,13.70
2023-09-02T02:33:05.161Z,13.67
2023-09-02T02:34:06.764Z,13.74
2023-09-02T02:35:08.665Z,13.85
2023-09-02T02:36:11.356Z,13.78
2023-09-02T02:37:12.917Z,13.59
2023-09-02T02:38:14.516Z,13.34
2023-09-02T02:39:16.212Z,13.16
2023-09-02T02:40:17.781Z,13.38
2023-09-02T02:41:19.359Z,13.32
2023-09-02T02:42:23.614Z,13.72
2023-09-02T02:43:27.235Z,13.72
2023-09-02T02:44:28.824Z,13.60
2023-09-02T02:45:30.408Z,13.74
2023-09-02T02:46:32.130Z,13.44
2023-09-02T02:47:33.807Z,13.41
2023-09-02T02:48:35.496Z,13.45
2023-09-02T02:49:37.189Z,13.62
2023-09-02T02:50:38.893Z,13.70
2023-09-02T02:51:40.618Z,13.80
2023-09-02T02:52:42.367Z,13.77
2023-09-02T02:53:44.058Z,13.86
2023-09-02T02:54:45.802Z,13.88
2023-09-02T02:55:47.440Z,13.89
2023-09-02T02:56:49.096Z,13.88
2023-09-02T02:57:50.840Z,13.88
2023-09-02T02:58:52.727Z,13.89
2023-09-02T02:59:54.370Z,13.91
2023-09-02T03:01:06.865Z,13.97
2023-09-02T03:02:08.671Z,14.03
2023-09-02T03:03:13.951Z,13.95
2023-09-02T03:04:15.695Z,13.88
2023-09-02T03:05:20.151Z,13.77
2023-09-02T03:06:21.810Z,13.52
2023-09-02T03:07:23.657Z,13.31
2023-09-02T03:08:25.314Z,13.37
2023-09-02T03:09:26.888Z,13.56
2023-09-02T03:10:28.533Z,13.74
2023-09-02T03:11:30.190Z,13.82
2023-09-02T03:12:32.897Z,13.84
2023-09-02T03:13:37.622Z,14.02
2023-09-02T03:14:48.026Z,13.94
2023-09-02T03:15:51.176Z,13.99
2023-09-02T03:16:53.436Z,13.99
2023-09-02T03:17:55.400Z,13.84
2023-09-02T03:18:59.475Z,13.67
2023-09-02T03:20:04.935Z,13.79
2023-09-02T03:21:08.556Z,13.94
2023-09-02T03:22:11.744Z,14.01
2023-09-02T03:23:14.225Z,13.73
2023-09-02T03:24:16.960Z,13.58
2023-09-02T03:25:18.624Z,13.26
2023-09-02T03:26:21.256Z,13.35
2023-09-02T03:27:25.572Z,13.60
2023-09-02T03:28:27.365Z,13.25
2023-09-02T03:29:29.704Z,13.36
2023-09-02T03:30:33.653Z,13.20
2023-09-02T03:31:35.442Z,13.39
2023-09-02T03:32:38.755Z,13.53
2023-09-02T03:33:40.469Z,13.68
2023-09-02T03:34:43.631Z,13.52
2023-09-02T03:35:45.773Z,13.37
2023-09-02T03:36:47.385Z,13.32
2023-09-02T03:37:49.097Z,13.23
2023-09-02T03:38:50.915Z,13.31
2023-09-02T03:39:54.404Z,13.41
2023-09-02T03:40:57.079Z,13.36
2023-09-02T03:41:58.647Z,13.25
2023-09-02T03:43:00.255Z,13.20
2023-09-02T03:44:01.912Z,13.23
2023-09-02T03:45:06.759Z,13.42
2023-09-02T03:46:08.524Z,13.26
2023-09-02T03:47:10.459Z,13.38
2023-09-02T03:48:13.053Z,13.23
2023-09-02T03:49:14.954Z,13.31
2023-09-02T03:50:25.212Z,13.36
2023-09-02T03:51:27.790Z,13.23
2023-09-02T03:52:33.058Z,12.82
2023-09-02T03:53:34.769Z,13.14
2023-09-02T03:54:37.577Z,13.06
2023-09-02T03:55:39.404Z,13.09
2023-09-02T03:56:42.999Z,13.19
2023-09-02T03:57:44.638Z,13.02
2023-09-02T03:58:46.244Z,12.72
2023-09-02T03:59:49.284Z,12.75
2023-09-02T04:00:51.001Z,13.22
2023-09-02T04:01:53.094Z,13.32
2023-09-02T04:02:54.784Z,13.54
2023-09-02T04:03:56.508Z,13.60
2023-09-02T04:04:58.266Z,13.59
2023-09-02T04:06:00.999Z,13.71
2023-09-02T04:07:04.477Z,13.62
2023-09-02T04:08:06.406Z,13.61
2023-09-02T04:09:11.031Z,13.65
2023-09-02T04:10:12.724Z,13.59
2023-09-02T04:11:14.380Z,13.43
2023-09-02T04:12:16.009Z,13.56
2023-09-02T04:13:17.958Z,13.68
2023-09-02T04:14:19.837Z,13.63
2023-09-02T04:15:21.452Z,13.75
2023-09-02T04:16:23.114Z,13.77
2023-09-02T04:17:25.030Z,13.81
2023-09-02T04:18:26.858Z,13.79
2023-09-02T04:19:29.048Z,13.79
2023-09-02T04:20:31.323Z,13.75
2023-09-02T04:21:33.408Z,13.78
2023-09-02T04:22:35.051Z,13.89
2023-09-02T04:23:37.124Z,13.78
2023-09-02T04:24:44.565Z,13.75
2023-09-02T04:25:50.566Z,13.59
2023-09-02T04:26:53.143Z,13.67
2023-09-02T04:27:54.742Z,13.72
2023-09-02T04:28:57.013Z,13.83
2023-09-02T04:30:00.290Z,13.91
2023-09-02T04:31:04.143Z,13.95
2023-09-02T04:32:08.071Z,14.01
2023-09-02T04:33:10.469Z,13.99
2023-09-02T04:34:13.264Z,13.86
2023-09-02T04:35:15.914Z,13.95
2023-09-02T04:36:17.905Z,13.93
2023-09-02T04:37:19.904Z,13.87
2023-09-02T04:38:21.663Z,13.86
2023-09-02T04:39:26.268Z,13.68
2023-09-02T04:40:27.886Z,13.88
2023-09-02T04:41:29.510Z,13.98
2023-09-02T04:42:34.802Z,14.01
2023-09-02T04:43:38.900Z,14.03
2023-09-02T04:44:40.680Z,14.04
2023-09-02T04:45:43.152Z,13.69
2023-09-02T04:46:47.419Z,13.89
2023-09-02T04:47:50.220Z,14.07
2023-09-02T04:48:53.955Z,14.10
2023-09-02T04:49:56.797Z,14.08
2023-09-02T04:51:00.015Z,13.78
2023-09-02T04:52:05.035Z,14.09
2023-09-02T04:53:08.668Z,14.19
2023-09-02T04:54:13.063Z,14.14
2023-09-02T04:55:14.704Z,14.14
2023-09-02T04:56:16.342Z,14.34
2023-09-02T04:57:20.350Z,14.32
2023-09-02T04:58:24.101Z,14.19
2023-09-02T04:59:27.355Z,14.32
2023-09-02T05:00:29.619Z,14.40
2023-09-02T05:01:31.683Z,14.42
2023-09-02T05:02:34.579Z,14.53
2023-09-02T05:03:36.227Z,14.43
2023-09-02T05:04:37.810Z,14.43
2023-09-02T05:05:39.475Z,14.31
2023-09-02T05:06:43.976Z,14.38
2023-09-02T05:07:46.396Z,14.46
2023-09-02T05:08:55.144Z,14.54
2023-09-02T05:09:58.020Z,14.46
2023-09-02T05:11:00.118Z,14.50
2023-09-02T05:12:02.064Z,14.58
2023-09-02T05:13:04.035Z,14.71
2023-09-02T05:14:07.312Z,14.67
2023-09-02T05:15:09.738Z,14.62
2023-09-02T05:16:12.394Z,14.76
2023-09-02T05:17:14.102Z,14.72
2023-09-02T05:18:15.692Z,14.65
2023-09-02T05:19:17.326Z,14.58
2023-09-02T05:20:19.050Z,14.37
2023-09-02T05:21:20.723Z,14.46
2023-09-02T05:22:23.420Z,14.65
2023-09-02T05:23:25.214Z,14.74
2023-09-02T05:24:28.544Z,14.44
2023-09-02T05:25:30.275Z,14.27
2023-09-02T05:26:33.648Z,14.22
2023-09-02T05:27:37.638Z,14.58
2023-09-02T05:28:39.245Z,14.13
2023-09-02T05:29:40.919Z,14.53
2023-09-02T05:30:42.510Z,14.71
2023-09-02T05:31:44.178Z,14.71
2023-09-02T05:32:45.877Z,14.80
2023-09-02T05:33:48.144Z,15.00
2023-09-02T05:34:49.860Z,14.94
2023-09-02T05:35:52.613Z,15.14
2023-09-02T05:36:54.216Z,15.20
2023-09-02T05:37:55.935Z,15.13
2023-09-02T05:38:57.550Z,15.34
2023-09-02T05:39:59.273Z,15.55
2023-09-02T05:41:00.966Z,15.67
2023-09-02T05:42:02.558Z,15.91
2023-09-02T05:43:04.417Z,16.03
2023-09-02T05:44:06.367Z,16.12
2023-09-02T05:45:08.379Z,16.12
2023-09-02T05:46:10.002Z,16.14
2023-09-02T05:47:14.088Z,16.19
2023-09-02T05:48:16.092Z,16.33
2023-09-02T05:49:17.632Z,16.50
2023-09-02T05:50:19.280Z,16.63
2023-09-02T05:51:20.911Z,16.74
2023-09-02T05:52:22.508Z,16.53
2023-09-02T05:53:24.227Z,16.50
2023-09-02T05:54:25.847Z,16.58
2023-09-02T05:55:27.476Z,16.61
2023-09-02T05:56:29.137Z,16.56
2023-09-02T05:57:30.733Z,16.53
2023-09-02T05:58:32.358Z,16.69
2023-09-02T05:59:33.994Z,16.71
2023-09-02T06:00:37.356Z,16.84
2023-09-02T06:01:39.084Z,17.09
2023-09-02T06:02:40.816Z,17.36
2023-09-02T06:03:43.277Z,17.43
2023-09-02T06:04:44.953Z,17.73
2023-09-02T06:05:46.613Z,17.91
2023-09-02T06:06:48.223Z,18.28
2023-09-02T06:07:49.809Z,18.65
2023-09-02T06:08:51.512Z,19.06
2023-09-02T06:09:53.130Z,19.31
2023-09-02T06:11:01.177Z,19.91
2023-09-02T06:12:02.836Z,20.01
2023-09-02T06:13:04.638Z,20.07
2023-09-02T06:14:06.217Z,19.95
2023-09-02T06:15:08.439Z,20.33
2023-09-02T06:16:10.030Z,20.85
2023-09-02T06:17:11.688Z,20.98
2023-09-02T06:18:13.232Z,21.56
2023-09-02T06:19:14.838Z,22.17
2023-09-02T06:20:17.371Z,22.55
2023-09-02T06:21:19.085Z,22.22
2023-09-02T06:22:20.731Z,22.56
2023-09-02T06:23:26.863Z,22.57
2023-09-02T06:24:28.801Z,22.99
2023-09-02T06:25:30.453Z,23.02
2023-09-02T06:26:32.485Z,23.47
2023-09-02T06:27:34.061Z,23.88
2023-09-02T06:28:35.738Z,24.30
2023-09-02T06:29:38.491Z,24.35
2023-09-02T06:30:40.192Z,24.22
2023-09-02T06:31:41.906Z,24.81
2023-09-02T06:32:43.550Z,25.02
2023-09-02T06:33:45.328Z,25.32
2023-09-02T06:34:46.992Z,25.80
2023-09-02T06:35:49.835Z,25.75
2023-09-02T06:36:51.423Z,25.24
2023-09-02T06:37:53.088Z,25.39
2023-09-02T06:38:54.694Z,25.27
2023-09-02T06:39:56.361Z,25.45
2023-09-02T06:40:57.929Z,25.69
2023-09-02T06:41:59.535Z,25.55
2023-09-02T06:43:05.067Z,26.02
2023-09-02T06:44:06.703Z,26.36
2023-09-02T06:45:09.015Z,26.27
2023-09-02T06:46:18.413Z,27.18
2023-09-02T06:47:20.156Z,27.23
2023-09-02T06:48:21.752Z,27.12
2023-09-02T06:49:23.417Z,27.07
2023-09-02T06:50:25.098Z,27.39
2023-09-02T06:51:26.767Z,27.02
2023-09-02T06:52:28.396Z,26.99
2023-09-02T06:53:29.979Z,26.69
2023-09-02T06:54:31.571Z,26.77
2023-09-02T06:55:33.143Z,27.63
2023-09-02T06:56:34.752Z,27.47
2023-09-02T06:57:36.453Z,27.11
2023-09-02T06:58:39.511Z,27.27
2023-09-02T06:59:41.193Z,27.42
2023-09-02T07:00:42.835Z,27.41
2023-09-02T07:01:44.808Z,27.05
2023-09-02T07:02:46.489Z,26.59
2023-09-02T07:03:48.184Z,27.38
2023-09-02T07:04:50.488Z,28.07
2023-09-02T07:05:52.157Z,28.52
2023-09-02T07:06:53.775Z,28.77
2023-09-02T07:07:55.421Z,29.22
2023-09-02T07:08:57.014Z,29.82
2023-09-02T07:09:59.186Z,30.22
2023-09-02T07:11:00.748Z,30.00
2023-09-02T07:12:02.314Z,30.50
2023-09-02T07:13:04.068Z,29.18
2023-09-02T07:14:05.738Z,28.98
2023-09-02T07:15:08.145Z,29.10
2023-09-02T07:16:10.100Z,29.46
2023-09-02T07:17:11.684Z,29.09
2023-09-02T07:18:13.384Z,28.99
2023-09-02T07:19:15.044Z,29.14
2023-09-02T07:20:16.735Z,29.82
2023-09-02T07:21:23.530Z,30.12
2023-09-02T07:22:25.646Z,30.53
2023-09-02T07:23:28.086Z,29.81
2023-09-02T07:24:30.118Z,30.04
2023-09-02T07:25:31.723Z,30.71
2023-09-02T07:26:33.595Z,31.02
2023-09-02T07:27:35.173Z,31.57
2023-09-02T07:28:38.734Z,31.05
2023-09-02T07:29:40.305Z,31.44
2023-09-02T07:30:41.910Z,31.36
2023-09-02T07:31:43.563Z,31.61
2023-09-02T07:32:45.337Z,31.84
2023-09-02T07:33:46.986Z,31.08
2023-09-02T07:34:48.807Z,31.16
2023-09-02T07:35:50.431Z,30.83
2023-09-02T07:36:52.037Z,31.43
2023-09-02T07:37:53.663Z,30.62
2023-09-02T07:38:55.284Z,30.64
2023-09-02T07:39:56.911Z,31.11
2023-09-02T07:40:58.572Z,31.34
2023-09-02T07:42:00.193Z,31.71
2023-09-02T07:43:03.401Z,31.34
2023-09-02T07:44:05.291Z,31.63
2023-09-02T07:45:07.525Z,31.50
2023-09-02T07:46:11.462Z,31.37
2023-09-02T07:47:13.234Z,31.91
2023-09-02T07:48:15.005Z,31.57
2023-09-02T07:49:16.640Z,31.79
2023-09-02T07:50:18.224Z,31.33
2023-09-02T07:51:19.910Z,31.33
2023-09-02T07:52:21.462Z,31.22
2023-09-02T07:53:23.065Z,31.06
2023-09-02T07:54:24.799Z,30.36
2023-09-02T07:55:27.112Z,31.08
2023-09-02T07:56:29.112Z,30.34
2023-09-02T07:57:32.065Z,30.48
2023-09-02T07:58:33.688Z,30.79
2023-09-02T07:59:35.318Z,30.77
2023-09-02T08:00:37.826Z,30.70
2023-09-02T08:01:39.591Z,31.59
2023-09-02T08:02:41.378Z,31.70
2023-09-02T08:03:43.032Z,31.83
2023-09-02T08:04:44.637Z,31.82
2023-09-02T08:05:46.277Z,31.81
2023-09-02T08:06:47.994Z,32.60
2023-09-02T08:07:49.547Z,32.81
2023-09-02T08:08:53.658Z,32.41
2023-09-02T08:09:55.219Z,32.66
2023-09-02T08:11:06.782Z,32.89
2023-09-02T08:12:09.317Z,33.30
2023-09-02T08:13:10.974Z,32.55
2023-09-02T08:14:12.669Z,32.09
2023-09-02T08:15:15.027Z,31.93
2023-09-02T08:16:16.836Z,32.27
2023-09-02T08:17:20.650Z,32.28
2023-09-02T08:18:22.704Z,32.17
2023-09-02T08:19:24.337Z,32.59
2023-09-02T08:20:26.616Z,33.57
2023-09-02T08:21:28.309Z,32.96
2023-09-02T08:22:29.931Z,33.78
2023-09-02T08:23:31.560Z,33.75
2023-09-02T08:24:33.180Z,34.16
2023-09-02T08:25:34.984Z,34.43
2023-09-02T08:26:37.093Z,33.63
2023-09-02T08:27:38.732Z,32.91
2023-09-02T08:28:41.110Z,32.50
2023-09-02T08:29:42.751Z,33.21
2023-09-02T08:30:45.064Z,33.38
2023-09-02T08:31:46.699Z,33.99
2023-09-02T08:32:48.506Z,33.69
2023-09-02T08:33:50.302Z,32.84
2023-09-02T08:34:52.726Z,33.58
2023-09-02T08:35:54.340Z,33.79
2023-09-02T08:36:55.962Z,33.20
2023-09-02T08:37:57.611Z,33.39
2023-09-02T08:38:59.259Z,33.54
2023-09-02T08:40:00.914Z,33.18
2023-09-02T08:41:03.170Z,32.96
2023-09-02T08:42:05.853Z,33.23
2023-09-02T08:43:07.482Z,33.37
2023-09-02T08:44:11.100Z,32.63
2023-09-02T08:45:14.560Z,33.19
2023-09-02T08:46:18.033Z,33.61
2023-09-02T08:47:21.202Z,33.32
2023-09-02T08:48:27.034Z,33.67
2023-09-02T08:49:28.884Z,34.12
2023-09-02T08:50:30.620Z,34.31
2023-09-02T08:51:32.671Z,34.72
2023-09-02T08:52:34.218Z,34.47
2023-09-02T08:53:35.829Z,34.36
2023-09-02T08:54:38.502Z,33.74
2023-09-02T08:55:41.549Z,34.46
2023-09-02T08:56:43.863Z,34.47
2023-09-02T08:57:45.887Z,34.66
2023-09-02T08:58:47.912Z,34.50
2023-09-02T08:59:49.506Z,34.21
2023-09-02T09:00:51.178Z,34.20
2023-09-02T09:01:53.529Z,34.59
2023-09-02T09:02:55.442Z,34.71
2023-09-02T09:03:57.360Z,34.72
2023-09-02T09:05:03.118Z,34.58
2023-09-02T09:06:06.256Z,34.33
2023-09-02T09:07:09.695Z,34.41
2023-09-02T09:08:11.680Z,34.93
2023-09-02T09:09:14.338Z,35.39
2023-09-02T09:10:17.082Z,35.00
2023-09-02T09:11:19.091Z,34.15
2023-09-02T09:12:21.871Z,34.46
2023-09-02T09:13:24.461Z,34.32
2023-09-02T09:14:28.066Z,33.55
2023-09-02T09:15:29.717Z,32.64
2023-09-02T09:16:34.424Z,32.96
2023-09-02T09:17:36.239Z,33.05
2023-09-02T09:18:38.079Z,32.19
2023-09-02T09:19:39.924Z,33.08
2023-09-02T09:20:41.760Z,33.91
2023-09-02T09:21:43.338Z,33.80
2023-09-02T09:22:44.987Z,32.46
2023-09-02T09:23:46.604Z,33.23
2023-09-02T09:24:48.239Z,32.11
2023-09-02T09:25:52.574Z,31.33
2023-09-02T09:26:54.218Z,31.97
2023-09-02T09:28:10.972Z,32.77
2023-09-02T09:29:17.100Z,33.52
2023-09-02T09:30:29.329Z,33.98
2023-09-02T09:31:30.988Z,34.75
2023-09-02T09:32:33.110Z,34.12
2023-09-02T09:33:34.734Z,33.38
2023-09-02T09:34:41.251Z,33.89
2023-09-02T09:35:42.806Z,33.64
2023-09-02T09:36:45.344Z,33.57
2023-09-02T09:37:56.586Z,34.13
2023-09-02T09:39:00.746Z,33.01
2023-09-02T09:40:02.847Z,33.68
2023-09-02T09:41:06.796Z,34.15
2023-09-02T09:42:08.781Z,34.20
2023-09-02T09:43:18.252Z,34.29
2023-09-02T09:44:20.193Z,33.86
2023-09-02T09:45:21.891Z,34.20
2023-09-02T09:46:23.607Z,34.08
2023-09-02T09:47:26.867Z,33.26
2023-09-02T09:48:28.507Z,33.74
2023-09-02T09:49:31.648Z,34.45
2023-09-02T09:50:33.203Z,34.50
2023-09-02T09:51:34.830Z,34.05
2023-09-02T09:52:36.412Z,34.06
2023-09-02T09:53:47.306Z,33.64
2023-09-02T09:54:53.327Z,33.69
2023-09-02T09:55:55.116Z,33.60
2023-09-02T09:56:56.737Z,33.43
2023-09-02T09:57:59.757Z,34.04
2023-09-02T09:59:08.880Z,33.40
2023-09-02T10:00:15.979Z,34.24
2023-09-02T10:01:22.578Z,34.67
2023-09-02T10:02:24.703Z,34.43
2023-09-02T10:03:35.235Z,34.43
2023-09-02T10:04:36.826Z,33.88
2023-09-02T10:05:39.016Z,33.53
2023-09-02T10:06:40.713Z,33.12
2023-09-02T10:07:42.546Z,33.68
2023-09-02T10:08:55.099Z,33.10
2023-09-02T10:09:59.151Z,33.60
2023-09-02T10:11:19.115Z,34.33
2023-09-02T10:12:20.805Z,34.29
2023-09-02T10:13:22.528Z,33.56
2023-09-02T10:14:24.103Z,34.46
2023-09-02T10:15:27.278Z,34.66
2023-09-02T10:16:29.671Z,34.16
2023-09-02T10:17:31.388Z,33.46
2023-09-02T10:18:33.395Z,33.86
2023-09-02T10:19:35.701Z,34.03
2023-09-02T10:20:39.518Z,34.63
2023-09-02T10:21:41.636Z,34.02
2023-09-02T10:22:43.915Z,33.64
2023-09-02T10:23:52.362Z,34.31
2023-09-02T10:25:04.594Z,34.01
2023-09-02T10:26:33.277Z,33.91
2023-09-02T10:27:39.635Z,34.46
2023-09-02T10:28:41.484Z,34.27
2023-09-02T10:29:44.647Z,34.30
2023-09-02T10:30:49.274Z,34.97
2023-09-02T10:31:56.767Z,34.84
2023-09-02T10:33:10.332Z,34.81
2023-09-02T10:34:16.826Z,34.44
2023-09-02T10:35:23.226Z,33.33
2023-09-02T10:36:28.666Z,32.99
2023-09-02T10:37:39.498Z,33.44
2023-09-02T10:38:45.859Z,34.01
2023-09-02T10:39:52.752Z,34.31
2023-09-02T10:40:58.512Z,34.32
2023-09-02T10:42:01.748Z,34.05
2023-09-02T10:43:03.501Z,33.32
2023-09-02T10:44:05.705Z,34.02
2023-09-02T10:45:07.739Z,33.21
2023-09-02T10:46:09.736Z,32.96
2023-09-02T10:47:12.282Z,33.30
2023-09-02T10:48:14.553Z,33.63
2023-09-02T10:49:16.324Z,33.39
2023-09-02T10:50:20.103Z,33.52
2023-09-02T10:51:22.338Z,33.49
2023-09-02T10:52:23.992Z,33.33
2023-09-02T10:53:53.371Z,31.91
2023-09-02T10:55:04.321Z,31.20
2023-09-02T10:56:05.935Z,31.13
2023-09-02T10:57:14.894Z,30.79
2023-09-02T10:58:16.554Z,30.34
2023-09-02T10:59:44.189Z,30.72
2023-09-02T11:00:48.925Z,31.41
2023-09-02T11:01:50.625Z,32.11
2023-09-02T11:02:53.899Z,32.38
2023-09-02T11:03:55.943Z,32.11
2023-09-02T11:04:58.508Z,32.32
2023-09-02T11:06:07.521Z,32.81
2023-09-02T11:07:21.654Z,32.44
2023-09-02T11:08:50.497Z,32.38
2023-09-02T11:09:55.095Z,32.29
2023-09-02T11:10:57.016Z,32.59
2023-09-02T11:12:11.314Z,33.07
2023-09-02T11:13:12.997Z,33.60
2023-09-02T11:14:17.728Z,33.83
2023-09-02T11:15:19.827Z,33.83
2023-09-02T11:16:21.726Z,33.40
2023-09-02T11:17:30.833Z,32.97
2023-09-02T11:18:35.475Z,32.57
2023-09-02T11:19:58.192Z,32.82
2023-09-02T11:21:00.044Z,33.21
2023-09-02T11:22:02.173Z,33.05
2023-09-02T11:23:05.677Z,33.40
2023-09-02T11:24:17.257Z,32.97
2023-09-02T11:25:28.014Z,32.93
2023-09-02T11:26:29.698Z,31.18
2023-09-02T11:28:01.946Z,30.48
2023-09-02T11:29:21.062Z,30.81
2023-09-02T11:30:27.073Z,30.36
2023-09-02T11:31:29.794Z,29.60
2023-09-02T11:32:44.371Z,28.04
2023-09-02T11:33:49.196Z,28.82
2023-09-02T11:34:50.832Z,29.26
2023-09-02T11:35:53.548Z,29.12
2023-09-02T11:36:56.562Z,28.76
2023-09-02T11:37:58.434Z,28.33
2023-09-02T11:39:00.043Z,28.44
2023-09-02T11:40:15.096Z,28.77
2023-09-02T11:41:22.817Z,28.53
2023-09-02T11:42:28.571Z,28.13
2023-09-02T11:43:32.610Z,27.91
2023-09-02T11:44:34.652Z,28.09
2023-09-02T11:45:38.253Z,28.12
2023-09-02T11:46:40.436Z,27.65
2023-09-02T11:47:42.209Z,27.22
2023-09-02T11:48:43.799Z,27.49
2023-09-02T11:49:45.490Z,27.56
2023-09-02T11:50:47.197Z,26.85
2023-09-02T11:51:48.807Z,27.26
2023-09-02T11:52:54.148Z,27.45
2023-09-02T11:53:56.604Z,27.47
2023-09-02T11:54:58.217Z,27.38
2023-09-02T11:55:59.845Z,27.54
2023-09-02T11:57:02.117Z,27.15
2023-09-02T11:58:15.381Z,26.99
2023-09-02T11:59:21.051Z,27.25
2023-09-02T12:00:24.266Z,27.21
2023-09-02T12:01:25.970Z,27.38
2023-09-02T12:02:27.755Z,27.43
2023-09-02T12:03:30.029Z,27.29
2023-09-02T12:04:42.243Z,27.23
2023-09-02T12:05:50.989Z,27.05
2023-09-02T12:06:53.589Z,27.14
2023-09-02T12:07:55.198Z,27.22
2023-09-02T12:08:57.344Z,27.35
2023-09-02T12:09:59.024Z,27.26
2023-09-02T12:11:04.686Z,27.27
2023-09-02T12:12:07.677Z,27.18
2023-09-02T12:13:09.992Z,27.04
2023-09-02T12:14:12.145Z,27.10
2023-09-02T12:15:18.935Z,26.83
2023-09-02T12:16:23.336Z,26.93
2023-09-02T12:17:25.236Z,27.07
2023-09-02T12:18:27.049Z,26.89
2023-09-02T12:19:29.701Z,26.90
2023-09-02T12:20:31.798Z,26.86
2023-09-02T12:21:35.731Z,26.83
2023-09-02T12:22:38.385Z,26.53
2023-09-02T12:23:40.046Z,26.31
2023-09-02T12:24:41.710Z,26.02
2023-09-02T12:25:43.345Z,25.95
2023-09-02T12:26:48.400Z,25.86
2023-09-02T12:27:51.000Z,26.00
2023-09-02T12:28:53.937Z,25.95
2023-09-02T12:29:58.723Z,25.93
2023-09-02T12:31:00.557Z,25.56
2023-09-02T12:32:02.376Z,25.39
2023-09-02T12:33:04.663Z,25.55
2023-09-02T12:34:06.170Z,25.68
2023-09-02T12:35:11.429Z,25.69
2023-09-02T12:36:13.022Z,25.76
2023-09-02T12:37:17.592Z,25.91
2023-09-02T12:38:21.789Z,25.84
2023-09-02T12:39:28.988Z,25.87
2023-09-02T12:40:31.298Z,25.98
2023-09-02T12:41:39.486Z,26.21
2023-09-02T12:42:42.416Z,26.05
2023-09-02T12:43:44.119Z,25.85
2023-09-02T12:45:03.777Z,25.55
2023-09-02T12:46:05.756Z,25.53
2023-09-02T12:47:09.785Z,25.63
2023-09-02T12:48:11.454Z,25.68
2023-09-02T12:49:17.828Z,25.65
2023-09-02T12:50:23.012Z,25.58
2023-09-02T12:51:31.370Z,25.52
2023-09-02T12:52:33.451Z,25.66
2023-09-02T12:53:35.112Z,25.80
2023-09-02T12:54:36.745Z,25.85
2023-09-02T12:55:41.443Z,26.01
2023-09-02T12:56:43.090Z,26.04
2023-09-02T12:57:44.652Z,26.09
2023-09-02T12:58:46.210Z,26.12
2023-09-02T12:59:47.871Z,25.68
2023-09-02T13:00:49.493Z,25.72
2023-09-02T13:01:52.046Z,25.60
2023-09-02T13:02:54.820Z,25.77
2023-09-02T13:03:59.479Z,25.80
2023-09-02T13:05:01.224Z,25.83
2023-09-02T13:06:02.844Z,25.77
2023-09-02T13:07:04.680Z,25.71
2023-09-02T13:08:06.502Z,25.84
2023-09-02T13:09:08.121Z,25.81
2023-09-02T13:10:11.110Z,25.86
2023-09-02T13:11:12.713Z,25.86
2023-09-02T13:12:14.379Z,25.83
2023-09-02T13:13:17.437Z,25.93
2023-09-02T13:14:19.264Z,25.93
2023-09-02T13:15:23.589Z,25.95
2023-09-02T13:16:25.798Z,26.02
2023-09-02T13:17:27.725Z,26.07
2023-09-02T13:18:29.545Z,26.06
2023-09-02T13:19:31.255Z,26.05
2023-09-02T13:20:36.938Z,26.04
2023-09-02T13:21:38.761Z,25.98
2023-09-02T13:22:41.833Z,25.91
2023-09-02T13:23:43.841Z,26.01
2023-09-02T13:24:47.344Z,25.91
2023-09-02T13:25:50.547Z,25.84
2023-09-02T13:26:52.274Z,25.58
2023-09-02T13:27:53.916Z,25.56
2023-09-02T13:28:55.502Z,25.52
2023-09-02T13:29:57.358Z,25.60
2023-09-02T13:30:59.251Z,25.66
2023-09-02T13:32:09.348Z,25.54
2023-09-02T13:33:10.996Z,25.72
2023-09-02T13:34:32.547Z,25.56
2023-09-02T13:35:34.223Z,25.51